9°C Temp
7°C Dewpoint
87% Humidity
Temperature
23 KM/H
14 MPH
12 KTS
230°
South West

Wind Speed
Mostly Cloudy
Conditions
Pressure 1001.92 (hPa) - 29.59 (in)
Visibility 6.2 (mi) - 10.0 (km)

Current Conditions
EGGD
Location Bristol International 6km (3.2mi)
Metar :EGGD 161220Z AUTO 23012KT 9999 BKN015/// OVC020/// //////TCU 09/07 Q1002
Wed 16th January 12:20 pm

Airport
  Metar Aviation API Data Provided by https://www.checkwx.com/ CSS/SVG/PHP scripts by weather34.com © 2015-2019